Terminal Aerodrome Forecast
Issued by NWS

Home | Current Version | Previous Version | Text Only | Print | Product List | Glossary On
Versions: 1 2 3 4 5 6 7 8 9 10 11 12 13 14 15 16
000
FTUS41 KBTV 260536
TAFMPV
TAF
KMPV 260536Z 2606/2706 04004KT P6SM SCT001 OVC030
     FM260800 01006KT 5SM -SHRA BR OVC018
      TEMPO 2609/2613 3SM SHRA OVC005
     FM261300 36004KT 4SM -SHRA BR OVC008
     FM262200 35008KT P6SM VCSH OVC010
     FM270300 34005KT P6SM OVC015=

USA.gov is the U.S. government's official web portal to all federal, state and local government web resources and services.